sensor_id;sensor_type;location;lat;lon;timestamp;temperature;humidity
47516;DHT22;33249;51.990;5.840;2022-09-21T00:00:50;10.20;99.90
47516;DHT22;33249;51.990;5.840;2022-09-21T00:03:17;10.20;99.90
47516;DHT22;33249;51.990;5.840;2022-09-21T00:05:43;10.20;99.90
47516;DHT22;33249;51.990;5.840;2022-09-21T00:08:09;10.20;99.90
47516;DHT22;33249;51.990;5.840;2022-09-21T00:10:36;10.30;99.90
47516;DHT22;33249;51.990;5.840;2022-09-21T00:13:09;10.20;99.90
47516;DHT22;33249;51.990;5.840;2022-09-21T00:15:38;10.00;99.90
47516;DHT22;33249;51.990;5.840;2022-09-21T00:18:08;10.00;99.90
47516;DHT22;33249;51.990;5.840;2022-09-21T00:20:34;10.00;99.90
47516;DHT22;33249;51.990;5.840;2022-09-21T00:23:00;9.90;99.90
47516;DHT22;33249;51.990;5.840;2022-09-21T00:25:26;9.90;99.90
47516;DHT22;33249;51.990;5.840;2022-09-21T00:27:52;10.00;99.90
47516;DHT22;33249;51.990;5.840;2022-09-21T00:30:21;10.00;99.90
47516;DHT22;33249;51.990;5.840;2022-09-21T00:32:47;10.00;99.90
47516;DHT22;33249;51.990;5.840;2022-09-21T00:35:16;10.00;99.90
47516;DHT22;33249;51.990;5.840;2022-09-21T00:37:46;10.00;99.90
47516;DHT22;33249;51.990;5.840;2022-09-21T00:40:12;10.00;99.90
47516;DHT22;33249;51.990;5.840;2022-09-21T00:42:38;9.90;99.90
47516;DHT22;33249;51.990;5.840;2022-09-21T00:45:04;9.90;99.90
47516;DHT22;33249;51.990;5.840;2022-09-21T00:50:02;9.90;99.90
47516;DHT22;33249;51.990;5.840;2022-09-21T00:52:29;9.90;99.90
47516;DHT22;33249;51.990;5.840;2022-09-21T00:54:59;9.80;99.90
47516;DHT22;33249;51.990;5.840;2022-09-21T00:57:30;9.80;99.90
47516;DHT22;33249;51.990;5.840;2022-09-21T00:59:56;9.80;99.90
47516;DHT22;33249;51.990;5.840;2022-09-21T01:02:24;9.70;99.90
47516;DHT22;33249;51.990;5.840;2022-09-21T01:04:51;9.60;99.90
47516;DHT22;33249;51.990;5.840;2022-09-21T01:07:23;9.70;99.90
47516;DHT22;33249;51.990;5.840;2022-09-21T01:09:53;9.70;99.90
47516;DHT22;33249;51.990;5.840;2022-09-21T01:20:10;9.60;99.90
47516;DHT22;33249;51.990;5.840;2022-09-21T01:25:37;9.60;99.90
47516;DHT22;33249;51.990;5.840;2022-09-21T01:30:33;9.40;99.90
47516;DHT22;33249;51.990;5.840;2022-09-21T01:33:05;9.40;99.90
47516;DHT22;33249;51.990;5.840;2022-09-21T01:35:32;9.30;99.90
47516;DHT22;33249;51.990;5.840;2022-09-21T01:38:25;9.20;99.90
47516;DHT22;33249;51.990;5.840;2022-09-21T01:40:55;9.10;99.90
47516;DHT22;33249;51.990;5.840;2022-09-21T01:43:25;9.20;99.90
47516;DHT22;33249;51.990;5.840;2022-09-21T01:45:56;9.20;99.90
47516;DHT22;33249;51.990;5.840;2022-09-21T01:48:32;9.20;99.90
47516;DHT22;33249;51.990;5.840;2022-09-21T01:51:03;9.20;99.90
47516;DHT22;33249;51.990;5.840;2022-09-21T01:53:36;9.20;99.90
47516;DHT22;33249;51.990;5.840;2022-09-21T01:56:06;9.20;99.90
47516;DHT22;33249;51.990;5.840;2022-09-21T01:58:40;9.20;99.90
47516;DHT22;33249;51.990;5.840;2022-09-21T02:01:10;9.20;99.90
47516;DHT22;33249;51.990;5.840;2022-09-21T02:03:40;9.20;99.90
47516;DHT22;33249;51.990;5.840;2022-09-21T02:06:12;9.20;99.90
47516;DHT22;33249;51.990;5.840;2022-09-21T02:08:38;9.20;99.90
47516;DHT22;33249;51.990;5.840;2022-09-21T02:11:05;9.10;99.90
47516;DHT22;33249;51.990;5.840;2022-09-21T02:13:33;9.20;99.90
47516;DHT22;33249;51.990;5.840;2022-09-21T02:24:24;9.00;99.90
47516;DHT22;33249;51.990;5.840;2022-09-21T02:27:05;9.00;99.90
47516;DHT22;33249;51.990;5.840;2022-09-21T02:29:39;9.10;99.90
47516;DHT22;33249;51.990;5.840;2022-09-21T02:34:40;9.30;99.90
47516;DHT22;33249;51.990;5.840;2022-09-21T02:37:15;9.30;99.90
47516;DHT22;33249;51.990;5.840;2022-09-21T02:39:43;9.40;99.90
47516;DHT22;33249;51.990;5.840;2022-09-21T02:42:14;9.40;99.90
47516;DHT22;33249;51.990;5.840;2022-09-21T02:44:53;9.40;99.90
47516;DHT22;33249;51.990;5.840;2022-09-21T02:47:25;9.10;99.90
47516;DHT22;33249;51.990;5.840;2022-09-21T02:49:55;9.00;99.90
47516;DHT22;33249;51.990;5.840;2022-09-21T02:52:23;8.90;99.90
47516;DHT22;33249;51.990;5.840;2022-09-21T02:54:56;8.80;99.90
47516;DHT22;33249;51.990;5.840;2022-09-21T02:57:23;8.90;99.90
47516;DHT22;33249;51.990;5.840;2022-09-21T02:59:50;8.90;99.90
47516;DHT22;33249;51.990;5.840;2022-09-21T03:02:23;8.90;99.90
47516;DHT22;33249;51.990;5.840;2022-09-21T03:04:49;8.90;99.90
47516;DHT22;33249;51.990;5.840;2022-09-21T03:07:15;8.80;99.90
47516;DHT22;33249;51.990;5.840;2022-09-21T03:09:44;8.90;99.90
47516;DHT22;33249;51.990;5.840;2022-09-21T03:12:12;8.90;99.90
47516;DHT22;33249;51.990;5.840;2022-09-21T03:14:39;8.80;99.90
47516;DHT22;33249;51.990;5.840;2022-09-21T03:17:05;8.70;99.90
47516;DHT22;33249;51.990;5.840;2022-09-21T03:19:31;8.60;99.90
47516;DHT22;33249;51.990;5.840;2022-09-21T03:22:00;8.70;99.90
47516;DHT22;33249;51.990;5.840;2022-09-21T03:24:28;8.90;99.90
47516;DHT22;33249;51.990;5.840;2022-09-21T03:27:16;8.90;99.90
47516;DHT22;33249;51.990;5.840;2022-09-21T03:29:45;8.70;99.90
47516;DHT22;33249;51.990;5.840;2022-09-21T03:32:11;8.70;99.90
47516;DHT22;33249;51.990;5.840;2022-09-21T03:34:38;8.80;99.90
47516;DHT22;33249;51.990;5.840;2022-09-21T03:37:05;8.80;99.90
47516;DHT22;33249;51.990;5.840;2022-09-21T03:39:36;8.70;99.90
47516;DHT22;33249;51.990;5.840;2022-09-21T03:42:06;8.70;99.90
47516;DHT22;33249;51.990;5.840;2022-09-21T03:44:32;8.70;99.90
47516;DHT22;33249;51.990;5.840;2022-09-21T03:46:58;8.70;99.90
47516;DHT22;33249;51.990;5.840;2022-09-21T03:49:24;8.70;99.90
47516;DHT22;33249;51.990;5.840;2022-09-21T03:51:50;8.60;99.90
47516;DHT22;33249;51.990;5.840;2022-09-21T03:54:16;8.60;99.90
47516;DHT22;33249;51.990;5.840;2022-09-21T03:56:45;8.60;99.90
47516;DHT22;33249;51.990;5.840;2022-09-21T03:59:14;8.40;99.90
47516;DHT22;33249;51.990;5.840;2022-09-21T04:01:40;8.50;99.90
47516;DHT22;33249;51.990;5.840;2022-09-21T04:04:06;8.40;99.90
47516;DHT22;33249;51.990;5.840;2022-09-21T04:06:38;8.30;99.90
47516;DHT22;33249;51.990;5.840;2022-09-21T04:09:04;8.30;99.90
47516;DHT22;33249;51.990;5.840;2022-09-21T04:11:30;8.20;99.90
47516;DHT22;33249;51.990;5.840;2022-09-21T04:14:00;8.00;99.90
47516;DHT22;33249;51.990;5.840;2022-09-21T04:16:30;8.00;99.90
47516;DHT22;33249;51.990;5.840;2022-09-21T04:18:56;8.00;99.90
47516;DHT22;33249;51.990;5.840;2022-09-21T04:21:22;8.10;99.90
47516;DHT22;33249;51.990;5.840;2022-09-21T04:23:54;8.20;99.90
47516;DHT22;33249;51.990;5.840;2022-09-21T04:26:21;8.30;99.90
47516;DHT22;33249;51.990;5.840;2022-09-21T04:28:48;8.40;99.90
47516;DHT22;33249;51.990;5.840;2022-09-21T04:31:14;8.10;99.90
47516;DHT22;33249;51.990;5.840;2022-09-21T04:33:43;7.90;99.90
47516;DHT22;33249;51.990;5.840;2022-09-21T04:36:09;8.00;99.90
47516;DHT22;33249;51.990;5.840;2022-09-21T04:38:38;8.10;99.90
47516;DHT22;33249;51.990;5.840;2022-09-21T04:41:05;8.10;99.90
47516;DHT22;33249;51.990;5.840;2022-09-21T04:43:36;8.00;99.90
47516;DHT22;33249;51.990;5.840;2022-09-21T04:46:09;8.00;99.90
47516;DHT22;33249;51.990;5.840;2022-09-21T04:48:36;7.90;99.90
47516;DHT22;33249;51.990;5.840;2022-09-21T04:51:02;7.90;99.90
47516;DHT22;33249;51.990;5.840;2022-09-21T04:53:35;8.00;99.90
47516;DHT22;33249;51.990;5.840;2022-09-21T04:56:02;8.00;99.90
47516;DHT22;33249;51.990;5.840;2022-09-21T04:58:31;8.10;99.90
47516;DHT22;33249;51.990;5.840;2022-09-21T05:01:01;8.20;99.90
47516;DHT22;33249;51.990;5.840;2022-09-21T05:03:29;8.00;99.90
47516;DHT22;33249;51.990;5.840;2022-09-21T05:05:57;8.00;99.90
47516;DHT22;33249;51.990;5.840;2022-09-21T05:08:26;7.90;99.90
47516;DHT22;33249;51.990;5.840;2022-09-21T05:11:11;7.80;99.90
47516;DHT22;33249;51.990;5.840;2022-09-21T05:13:41;7.80;99.90
47516;DHT22;33249;51.990;5.840;2022-09-21T05:16:07;7.70;99.90
47516;DHT22;33249;51.990;5.840;2022-09-21T05:18:34;7.70;99.90
47516;DHT22;33249;51.990;5.840;2022-09-21T05:21:01;7.70;99.90
47516;DHT22;33249;51.990;5.840;2022-09-21T05:23:28;7.70;99.90
47516;DHT22;33249;51.990;5.840;2022-09-21T05:25:54;7.80;99.90
47516;DHT22;33249;51.990;5.840;2022-09-21T05:28:24;7.80;99.90
47516;DHT22;33249;51.990;5.840;2022-09-21T05:33:20;7.90;99.90
47516;DHT22;33249;51.990;5.840;2022-09-21T05:38:31;8.10;99.90
47516;DHT22;33249;51.990;5.840;2022-09-21T05:41:01;8.10;99.90
47516;DHT22;33249;51.990;5.840;2022-09-21T05:43:30;8.00;99.90
47516;DHT22;33249;51.990;5.840;2022-09-21T05:46:18;8.00;99.90
47516;DHT22;33249;51.990;5.840;2022-09-21T05:48:46;8.00;99.90
47516;DHT22;33249;51.990;5.840;2022-09-21T05:52:04;8.10;99.90
47516;DHT22;33249;51.990;5.840;2022-09-21T06:04:57;8.40;99.90
47516;DHT22;33249;51.990;5.840;2022-09-21T06:07:37;8.50;99.90
47516;DHT22;33249;51.990;5.840;2022-09-21T06:10:03;8.40;99.90
47516;DHT22;33249;51.990;5.840;2022-09-21T06:12:32;8.40;99.90
47516;DHT22;33249;51.990;5.840;2022-09-21T06:15:14;8.30;99.90
47516;DHT22;33249;51.990;5.840;2022-09-21T06:17:42;8.40;99.90
47516;DHT22;33249;51.990;5.840;2022-09-21T06:20:10;8.40;99.90
47516;DHT22;33249;51.990;5.840;2022-09-21T06:22:36;8.40;99.90
47516;DHT22;33249;51.990;5.840;2022-09-21T06:25:02;8.50;99.90
47516;DHT22;33249;51.990;5.840;2022-09-21T06:27:29;8.60;99.90
47516;DHT22;33249;51.990;5.840;2022-09-21T06:29:57;8.70;99.90
47516;DHT22;33249;51.990;5.840;2022-09-21T06:32:26;8.70;99.90
47516;DHT22;33249;51.990;5.840;2022-09-21T06:34:52;8.70;99.90
47516;DHT22;33249;51.990;5.840;2022-09-21T06:37:21;8.60;99.90
47516;DHT22;33249;51.990;5.840;2022-09-21T06:39:48;8.70;99.90
47516;DHT22;33249;51.990;5.840;2022-09-21T06:42:16;8.90;99.90
47516;DHT22;33249;51.990;5.840;2022-09-21T06:44:42;9.30;99.90
47516;DHT22;33249;51.990;5.840;2022-09-21T06:47:08;9.50;99.90
47516;DHT22;33249;51.990;5.840;2022-09-21T06:49:34;9.50;99.90
47516;DHT22;33249;51.990;5.840;2022-09-21T06:52:03;9.50;99.90
47516;DHT22;33249;51.990;5.840;2022-09-21T06:54:29;9.50;99.90
47516;DHT22;33249;51.990;5.840;2022-09-21T06:56:55;9.60;99.90
47516;DHT22;33249;51.990;5.840;2022-09-21T06:59:21;9.50;99.90
47516;DHT22;33249;51.990;5.840;2022-09-21T07:01:47;9.50;99.90
47516;DHT22;33249;51.990;5.840;2022-09-21T07:04:13;9.50;99.90
47516;DHT22;33249;51.990;5.840;2022-09-21T07:06:39;9.60;99.90
47516;DHT22;33249;51.990;5.840;2022-09-21T07:09:05;9.60;99.90
47516;DHT22;33249;51.990;5.840;2022-09-21T07:11:34;9.60;99.90
47516;DHT22;33249;51.990;5.840;2022-09-21T07:14:03;9.70;99.90
47516;DHT22;33249;51.990;5.840;2022-09-21T07:16:29;9.80;99.90
47516;DHT22;33249;51.990;5.840;2022-09-21T07:18:55;9.90;99.90
47516;DHT22;33249;51.990;5.840;2022-09-21T07:21:23;9.80;99.90
47516;DHT22;33249;51.990;5.840;2022-09-21T07:23:49;9.90;99.90
47516;DHT22;33249;51.990;5.840;2022-09-21T07:26:15;10.00;99.90
47516;DHT22;33249;51.990;5.840;2022-09-21T07:28:44;10.00;99.90
47516;DHT22;33249;51.990;5.840;2022-09-21T07:31:11;10.20;99.90
47516;DHT22;33249;51.990;5.840;2022-09-21T07:33:38;10.10;99.90
47516;DHT22;33249;51.990;5.840;2022-09-21T07:36:09;10.20;99.90
47516;DHT22;33249;51.990;5.840;2022-09-21T07:38:39;10.20;99.90
47516;DHT22;33249;51.990;5.840;2022-09-21T07:41:12;10.20;99.90
47516;DHT22;33249;51.990;5.840;2022-09-21T07:43:41;10.30;99.90
47516;DHT22;33249;51.990;5.840;2022-09-21T07:46:10;10.40;99.90
47516;DHT22;33249;51.990;5.840;2022-09-21T07:48:40;10.50;99.90
47516;DHT22;33249;51.990;5.840;2022-09-21T07:51:11;10.60;99.90
47516;DHT22;33249;51.990;5.840;2022-09-21T07:53:38;10.60;99.90
47516;DHT22;33249;51.990;5.840;2022-09-21T07:56:14;10.60;99.90
47516;DHT22;33249;51.990;5.840;2022-09-21T07:58:42;10.70;99.90
47516;DHT22;33249;51.990;5.840;2022-09-21T08:01:30;10.80;99.90
47516;DHT22;33249;51.990;5.840;2022-09-21T08:04:00;10.80;99.90
47516;DHT22;33249;51.990;5.840;2022-09-21T08:06:27;10.90;99.90
47516;DHT22;33249;51.990;5.840;2022-09-21T08:08:55;11.00;99.90
47516;DHT22;33249;51.990;5.840;2022-09-21T08:11:21;11.00;99.90
47516;DHT22;33249;51.990;5.840;2022-09-21T08:13:47;11.00;99.90
47516;DHT22;33249;51.990;5.840;2022-09-21T08:16:19;11.10;99.90
47516;DHT22;33249;51.990;5.840;2022-09-21T08:18:45;11.20;99.90
47516;DHT22;33249;51.990;5.840;2022-09-21T08:21:18;11.30;99.90
47516;DHT22;33249;51.990;5.840;2022-09-21T08:23:45;11.30;99.90
47516;DHT22;33249;51.990;5.840;2022-09-21T08:26:14;11.70;99.90
47516;DHT22;33249;51.990;5.840;2022-09-21T08:28:44;12.00;99.90
47516;DHT22;33249;51.990;5.840;2022-09-21T08:31:27;12.30;99.90
47516;DHT22;33249;51.990;5.840;2022-09-21T08:34:06;12.30;99.90
47516;DHT22;33249;51.990;5.840;2022-09-21T08:36:32;12.40;99.90
47516;DHT22;33249;51.990;5.840;2022-09-21T08:38:59;12.20;99.90
47516;DHT22;33249;51.990;5.840;2022-09-21T08:44:12;12.40;99.90
47516;DHT22;33249;51.990;5.840;2022-09-21T08:46:49;12.40;99.90
47516;DHT22;33249;51.990;5.840;2022-09-21T08:49:19;12.40;99.90
47516;DHT22;33249;51.990;5.840;2022-09-21T08:51:55;12.60;99.90
47516;DHT22;33249;51.990;5.840;2022-09-21T08:57:11;12.80;99.90
47516;DHT22;33249;51.990;5.840;2022-09-21T08:59:41;12.80;99.90
47516;DHT22;33249;51.990;5.840;2022-09-21T09:05:01;12.90;99.90
47516;DHT22;33249;51.990;5.840;2022-09-21T09:13:01;13.10;99.90
47516;DHT22;33249;51.990;5.840;2022-09-21T09:20:37;13.50;99.90
47516;DHT22;33249;51.990;5.840;2022-09-21T09:23:05;13.60;99.90
47516;DHT22;33249;51.990;5.840;2022-09-21T09:25:35;13.70;99.90
47516;DHT22;33249;51.990;5.840;2022-09-21T09:28:08;13.90;99.90
47516;DHT22;33249;51.990;5.840;2022-09-21T09:30:41;14.10;99.90
47516;DHT22;33249;51.990;5.840;2022-09-21T09:33:12;14.10;99.90
47516;DHT22;33249;51.990;5.840;2022-09-21T09:35:56;14.20;99.90
47516;DHT22;33249;51.990;5.840;2022-09-21T09:38:38;14.40;99.90
47516;DHT22;33249;51.990;5.840;2022-09-21T09:49:13;15.00;99.90
47516;DHT22;33249;51.990;5.840;2022-09-21T09:51:40;14.90;99.90
47516;DHT22;33249;51.990;5.840;2022-09-21T09:54:12;15.00;99.90
47516;DHT22;33249;51.990;5.840;2022-09-21T09:56:40;14.90;99.90
47516;DHT22;33249;51.990;5.840;2022-09-21T09:59:09;14.80;99.90
47516;DHT22;33249;51.990;5.840;2022-09-21T10:01:40;15.00;99.90
47516;DHT22;33249;51.990;5.840;2022-09-21T10:04:08;15.00;99.90
47516;DHT22;33249;51.990;5.840;2022-09-21T10:06:34;14.90;99.90
47516;DHT22;33249;51.990;5.840;2022-09-21T10:09:02;14.90;99.90
47516;DHT22;33249;51.990;5.840;2022-09-21T10:11:47;15.00;99.90
47516;DHT22;33249;51.990;5.840;2022-09-21T10:14:18;15.00;99.90
47516;DHT22;33249;51.990;5.840;2022-09-21T10:16:52;15.00;99.90
47516;DHT22;33249;51.990;5.840;2022-09-21T10:19:24;15.20;99.90
47516;DHT22;33249;51.990;5.840;2022-09-21T10:21:59;15.40;99.90
47516;DHT22;33249;51.990;5.840;2022-09-21T10:24:35;15.30;99.90
47516;DHT22;33249;51.990;5.840;2022-09-21T10:27:12;15.50;99.90
47516;DHT22;33249;51.990;5.840;2022-09-21T10:29:43;15.30;99.90
47516;DHT22;33249;51.990;5.840;2022-09-21T10:37:40;15.50;99.90
47516;DHT22;33249;51.990;5.840;2022-09-21T10:42:45;15.60;99.90
47516;DHT22;33249;51.990;5.840;2022-09-21T10:45:23;15.60;99.90
47516;DHT22;33249;51.990;5.840;2022-09-21T10:47:50;15.60;99.90
47516;DHT22;33249;51.990;5.840;2022-09-21T10:52:45;15.70;99.90
47516;DHT22;33249;51.990;5.840;2022-09-21T10:55:28;15.80;99.90
47516;DHT22;33249;51.990;5.840;2022-09-21T10:59:08;15.80;99.90
47516;DHT22;33249;51.990;5.840;2022-09-21T11:06:15;16.60;99.90
47516;DHT22;33249;51.990;5.840;2022-09-21T11:19:42;16.30;99.90
47516;DHT22;33249;51.990;5.840;2022-09-21T11:22:42;16.30;99.90
47516;DHT22;33249;51.990;5.840;2022-09-21T11:27:55;16.30;99.90
47516;DHT22;33249;51.990;5.840;2022-09-21T11:30:24;16.20;99.90
47516;DHT22;33249;51.990;5.840;2022-09-21T11:32:59;16.10;99.90
47516;DHT22;33249;51.990;5.840;2022-09-21T11:35:40;16.10;99.90
47516;DHT22;33249;51.990;5.840;2022-09-21T11:41:31;16.10;99.90
47516;DHT22;33249;51.990;5.840;2022-09-21T11:49:35;16.30;99.90
47516;DHT22;33249;51.990;5.840;2022-09-21T11:52:13;16.10;99.90
47516;DHT22;33249;51.990;5.840;2022-09-21T12:00:14;15.70;99.90
47516;DHT22;33249;51.990;5.840;2022-09-21T12:12:49;15.80;99.90
47516;DHT22;33249;51.990;5.840;2022-09-21T12:27:01;16.40;99.90
47516;DHT22;33249;51.990;5.840;2022-09-21T14:01:16;16.80;98.60
47516;DHT22;33249;51.990;5.840;2022-09-21T14:03:48;17.00;99.90
47516;DHT22;33249;51.990;5.840;2022-09-21T14:06:16;16.80;99.90
47516;DHT22;33249;51.990;5.840;2022-09-21T14:09:16;16.60;99.90
47516;DHT22;33249;51.990;5.840;2022-09-21T14:11:49;16.60;99.90
47516;DHT22;33249;51.990;5.840;2022-09-21T14:14:40;16.60;99.90
47516;DHT22;33249;51.990;5.840;2022-09-21T14:17:47;16.50;99.90
47516;DHT22;33249;51.990;5.840;2022-09-21T14:20:30;16.60;99.90
47516;DHT22;33249;51.990;5.840;2022-09-21T14:25:52;16.60;98.60
47516;DHT22;33249;51.990;5.840;2022-09-21T14:29:04;16.60;98.70
47516;DHT22;33249;51.990;5.840;2022-09-21T14:31:30;16.50;98.10
47516;DHT22;33249;51.990;5.840;2022-09-21T14:44:11;16.40;99.60
47516;DHT22;33249;51.990;5.840;2022-09-21T15:00:54;16.20;99.90
47516;DHT22;33249;51.990;5.840;2022-09-21T15:12:16;16.10;99.90
47516;DHT22;33249;51.990;5.840;2022-09-21T15:22:28;15.80;99.90
47516;DHT22;33249;51.990;5.840;2022-09-21T15:25:33;15.90;99.90
47516;DHT22;33249;51.990;5.840;2022-09-21T16:14:23;14.80;99.90
47516;DHT22;33249;51.990;5.840;2022-09-21T16:17:26;14.70;99.90
47516;DHT22;33249;51.990;5.840;2022-09-21T16:23:49;14.70;99.90
47516;DHT22;33249;51.990;5.840;2022-09-21T16:26:19;14.80;99.90
47516;DHT22;33249;51.990;5.840;2022-09-21T16:28:46;14.70;99.90
47516;DHT22;33249;51.990;5.840;2022-09-21T16:31:20;14.70;99.90
47516;DHT22;33249;51.990;5.840;2022-09-21T16:39:04;14.70;99.90
47516;DHT22;33249;51.990;5.840;2022-09-21T16:41:37;14.70;99.90
47516;DHT22;33249;51.990;5.840;2022-09-21T16:44:16;14.70;99.90
47516;DHT22;33249;51.990;5.840;2022-09-21T16:46:46;14.60;99.90
47516;DHT22;33249;51.990;5.840;2022-09-21T16:49:18;14.60;99.90
47516;DHT22;33249;51.990;5.840;2022-09-21T16:51:48;14.50;99.90
47516;DHT22;33249;51.990;5.840;2022-09-21T16:54:15;14.50;99.90
47516;DHT22;33249;51.990;5.840;2022-09-21T16:56:41;14.40;99.90
47516;DHT22;33249;51.990;5.840;2022-09-21T16:59:14;14.20;99.90
47516;DHT22;33249;51.990;5.840;2022-09-21T17:01:41;14.30;99.90
47516;DHT22;33249;51.990;5.840;2022-09-21T17:04:08;14.20;99.90
47516;DHT22;33249;51.990;5.840;2022-09-21T17:06:41;14.10;99.90
47516;DHT22;33249;51.990;5.840;2022-09-21T17:11:52;13.80;99.90
47516;DHT22;33249;51.990;5.840;2022-09-21T17:14:19;13.70;99.90
47516;DHT22;33249;51.990;5.840;2022-09-21T17:16:52;13.70;99.90
47516;DHT22;33249;51.990;5.840;2022-09-21T17:19:29;13.70;99.90
47516;DHT22;33249;51.990;5.840;2022-09-21T17:22:02;13.60;99.90
47516;DHT22;33249;51.990;5.840;2022-09-21T17:24:32;13.50;99.90
47516;DHT22;33249;51.990;5.840;2022-09-21T17:26:58;13.40;99.90
47516;DHT22;33249;51.990;5.840;2022-09-21T17:29:29;13.40;99.90
47516;DHT22;33249;51.990;5.840;2022-09-21T17:32:08;13.30;99.90
47516;DHT22;33249;51.990;5.840;2022-09-21T17:34:35;13.30;99.90
47516;DHT22;33249;51.990;5.840;2022-09-21T17:37:01;13.20;99.90
47516;DHT22;33249;51.990;5.840;2022-09-21T17:39:30;13.00;99.90
47516;DHT22;33249;51.990;5.840;2022-09-21T17:44:37;12.80;99.90
47516;DHT22;33249;51.990;5.840;2022-09-21T17:49:40;12.70;99.90
47516;DHT22;33249;51.990;5.840;2022-09-21T17:52:15;12.70;99.90
47516;DHT22;33249;51.990;5.840;2022-09-21T17:54:59;12.70;99.90
47516;DHT22;33249;51.990;5.840;2022-09-21T17:57:35;12.50;99.90
47516;DHT22;33249;51.990;5.840;2022-09-21T18:00:27;12.40;99.90
47516;DHT22;33249;51.990;5.840;2022-09-21T18:02:54;12.40;99.90
47516;DHT22;33249;51.990;5.840;2022-09-21T18:05:24;12.30;99.90
47516;DHT22;33249;51.990;5.840;2022-09-21T18:07:56;12.30;99.90
47516;DHT22;33249;51.990;5.840;2022-09-21T18:10:40;12.30;99.90
47516;DHT22;33249;51.990;5.840;2022-09-21T18:19:42;12.30;99.90
47516;DHT22;33249;51.990;5.840;2022-09-21T18:22:17;12.30;99.90
47516;DHT22;33249;51.990;5.840;2022-09-21T18:24:47;12.10;99.90
47516;DHT22;33249;51.990;5.840;2022-09-21T18:27:13;12.20;99.90
47516;DHT22;33249;51.990;5.840;2022-09-21T18:29:42;12.10;99.90
47516;DHT22;33249;51.990;5.840;2022-09-21T18:32:18;12.10;99.90
47516;DHT22;33249;51.990;5.840;2022-09-21T18:37:41;11.90;99.90
47516;DHT22;33249;51.990;5.840;2022-09-21T18:40:15;11.90;99.90
47516;DHT22;33249;51.990;5.840;2022-09-21T18:43:03;12.00;99.90
47516;DHT22;33249;51.990;5.840;2022-09-21T18:45:36;11.90;99.90
47516;DHT22;33249;51.990;5.840;2022-09-21T18:53:49;11.80;99.90
47516;DHT22;33249;51.990;5.840;2022-09-21T18:56:16;11.80;99.90
47516;DHT22;33249;51.990;5.840;2022-09-21T18:58:44;11.70;99.90
47516;DHT22;33249;51.990;5.840;2022-09-21T19:01:14;11.60;99.90
47516;DHT22;33249;51.990;5.840;2022-09-21T19:03:44;11.60;99.90
47516;DHT22;33249;51.990;5.840;2022-09-21T19:11:42;11.50;99.90
47516;DHT22;33249;51.990;5.840;2022-09-21T19:14:21;11.50;99.90
47516;DHT22;33249;51.990;5.840;2022-09-21T19:25:19;11.30;99.90
47516;DHT22;33249;51.990;5.840;2022-09-21T19:27:47;11.30;99.90
47516;DHT22;33249;51.990;5.840;2022-09-21T19:30:17;11.20;99.90
47516;DHT22;33249;51.990;5.840;2022-09-21T19:32:45;11.10;99.90
47516;DHT22;33249;51.990;5.840;2022-09-21T19:37:37;11.10;99.90
47516;DHT22;33249;51.990;5.840;2022-09-21T19:40:04;11.00;99.90
47516;DHT22;33249;51.990;5.840;2022-09-21T19:42:35;10.90;99.90
47516;DHT22;33249;51.990;5.840;2022-09-21T19:47:49;10.80;99.90
47516;DHT22;33249;51.990;5.840;2022-09-21T19:52:45;10.80;99.90
47516;DHT22;33249;51.990;5.840;2022-09-21T19:55:20;10.80;99.90
47516;DHT22;33249;51.990;5.840;2022-09-21T19:58:05;10.70;99.90
47516;DHT22;33249;51.990;5.840;2022-09-21T20:00:50;10.70;99.90
47516;DHT22;33249;51.990;5.840;2022-09-21T20:09:06;10.50;99.90
47516;DHT22;33249;51.990;5.840;2022-09-21T20:11:49;10.60;99.90
47516;DHT22;33249;51.990;5.840;2022-09-21T20:14:30;10.70;99.90
47516;DHT22;33249;51.990;5.840;2022-09-21T20:17:02;10.60;99.90
47516;DHT22;33249;51.990;5.840;2022-09-21T20:25:03;10.70;99.90
47516;DHT22;33249;51.990;5.840;2022-09-21T20:27:51;10.70;99.90
47516;DHT22;33249;51.990;5.840;2022-09-21T20:30:46;10.60;99.90
47516;DHT22;33249;51.990;5.840;2022-09-21T20:36:46;10.50;99.90
47516;DHT22;33249;51.990;5.840;2022-09-21T20:39:28;10.30;99.90
47516;DHT22;33249;51.990;5.840;2022-09-21T20:41:54;10.30;99.90
47516;DHT22;33249;51.990;5.840;2022-09-21T20:44:53;10.30;99.90
47516;DHT22;33249;51.990;5.840;2022-09-21T20:54:49;10.00;99.90
47516;DHT22;33249;51.990;5.840;2022-09-21T20:58:13;10.00;99.90
47516;DHT22;33249;51.990;5.840;2022-09-21T21:04:55;10.30;99.90
47516;DHT22;33249;51.990;5.840;2022-09-21T21:11:54;10.20;99.90
47516;DHT22;33249;51.990;5.840;2022-09-21T21:14:47;10.10;99.90
47516;DHT22;33249;51.990;5.840;2022-09-21T21:18:08;10.00;99.90
47516;DHT22;33249;51.990;5.840;2022-09-21T21:20:34;10.00;99.90
47516;DHT22;33249;51.990;5.840;2022-09-21T21:23:00;10.00;99.90
47516;DHT22;33249;51.990;5.840;2022-09-21T21:25:29;10.20;99.90
47516;DHT22;33249;51.990;5.840;2022-09-21T21:28:01;10.20;99.90
47516;DHT22;33249;51.990;5.840;2022-09-21T21:30:32;10.10;99.90
47516;DHT22;33249;51.990;5.840;2022-09-21T21:33:04;9.90;99.90
47516;DHT22;33249;51.990;5.840;2022-09-21T21:35:30;9.90;99.90
47516;DHT22;33249;51.990;5.840;2022-09-21T21:38:01;9.80;99.90
47516;DHT22;33249;51.990;5.840;2022-09-21T21:40:30;9.90;99.90
47516;DHT22;33249;51.990;5.840;2022-09-21T21:43:04;9.90;99.90
47516;DHT22;33249;51.990;5.840;2022-09-21T21:45:36;10.10;99.90
47516;DHT22;33249;51.990;5.840;2022-09-21T21:48:04;10.00;99.90
47516;DHT22;33249;51.990;5.840;2022-09-21T21:50:35;9.90;99.90
47516;DHT22;33249;51.990;5.840;2022-09-21T21:53:01;9.80;99.90
47516;DHT22;33249;51.990;5.840;2022-09-21T21:55:30;9.80;99.90
47516;DHT22;33249;51.990;5.840;2022-09-21T21:57:58;9.80;99.90
47516;DHT22;33249;51.990;5.840;2022-09-21T22:00:24;9.70;99.90
47516;DHT22;33249;51.990;5.840;2022-09-21T22:02:56;9.70;99.90
47516;DHT22;33249;51.990;5.840;2022-09-21T22:05:23;9.80;99.90
47516;DHT22;33249;51.990;5.840;2022-09-21T22:07:57;9.90;99.90
47516;DHT22;33249;51.990;5.840;2022-09-21T22:10:23;9.90;99.90
47516;DHT22;33249;51.990;5.840;2022-09-21T22:12:50;10.00;99.90
47516;DHT22;33249;51.990;5.840;2022-09-21T22:15:16;9.80;99.90
47516;DHT22;33249;51.990;5.840;2022-09-21T22:17:45;9.80;99.90
47516;DHT22;33249;51.990;5.840;2022-09-21T22:20:11;9.80;99.90
47516;DHT22;33249;51.990;5.840;2022-09-21T22:22:37;9.70;99.90
47516;DHT22;33249;51.990;5.840;2022-09-21T22:25:03;9.60;99.90
47516;DHT22;33249;51.990;5.840;2022-09-21T22:27:32;9.60;99.90
47516;DHT22;33249;51.990;5.840;2022-09-21T22:29:58;9.70;99.90
47516;DHT22;33249;51.990;5.840;2022-09-21T22:32:24;9.70;99.90
47516;DHT22;33249;51.990;5.840;2022-09-21T22:34:53;9.80;99.90
47516;DHT22;33249;51.990;5.840;2022-09-21T22:37:19;9.80;99.90
47516;DHT22;33249;51.990;5.840;2022-09-21T22:39:44;9.80;99.90
47516;DHT22;33249;51.990;5.840;2022-09-21T22:42:12;9.80;99.90
47516;DHT22;33249;51.990;5.840;2022-09-21T22:44:39;9.80;99.90